sensor_id;sensor_type;location;lat;lon;timestamp;P1;durP1;ratioP1;P2;durP2;ratioP2
41881;SDS011;27562;47.524;12.404;2023-07-22T00:00:45;4.07;;;2.67;;
41881;SDS011;27562;47.524;12.404;2023-07-22T00:03:11;3.90;;;2.53;;
41881;SDS011;27562;47.524;12.404;2023-07-22T00:05:36;4.40;;;2.60;;
41881;SDS011;27562;47.524;12.404;2023-07-22T00:08:02;3.75;;;2.50;;
41881;SDS011;27562;47.524;12.404;2023-07-22T00:10:28;3.85;;;2.28;;
41881;SDS011;27562;47.524;12.404;2023-07-22T00:12:54;4.45;;;2.97;;
41881;SDS011;27562;47.524;12.404;2023-07-22T00:15:19;4.80;;;2.67;;
41881;SDS011;27562;47.524;12.404;2023-07-22T00:17:47;4.22;;;3.00;;
41881;SDS011;27562;47.524;12.404;2023-07-22T00:20:13;4.00;;;2.50;;
41881;SDS011;27562;47.524;12.404;2023-07-22T00:22:41;4.75;;;2.92;;
41881;SDS011;27562;47.524;12.404;2023-07-22T00:25:09;4.13;;;2.10;;
41881;SDS011;27562;47.524;12.404;2023-07-22T00:27:39;3.45;;;2.40;;
41881;SDS011;27562;47.524;12.404;2023-07-22T00:30:08;4.03;;;2.50;;
41881;SDS011;27562;47.524;12.404;2023-07-22T00:32:34;3.45;;;2.25;;
41881;SDS011;27562;47.524;12.404;2023-07-22T00:35:06;3.63;;;2.63;;
41881;SDS011;27562;47.524;12.404;2023-07-22T00:37:32;4.47;;;3.03;;
41881;SDS011;27562;47.524;12.404;2023-07-22T00:39:58;4.30;;;2.33;;
41881;SDS011;27562;47.524;12.404;2023-07-22T00:42:24;3.67;;;2.47;;
41881;SDS011;27562;47.524;12.404;2023-07-22T00:44:50;6.25;;;2.53;;
41881;SDS011;27562;47.524;12.404;2023-07-22T00:47:16;4.05;;;2.55;;
41881;SDS011;27562;47.524;12.404;2023-07-22T00:49:42;4.32;;;2.67;;
41881;SDS011;27562;47.524;12.404;2023-07-22T00:52:09;3.40;;;2.30;;
41881;SDS011;27562;47.524;12.404;2023-07-22T00:54:35;3.53;;;2.50;;
41881;SDS011;27562;47.524;12.404;2023-07-22T00:57:00;6.13;;;2.80;;
41881;SDS011;27562;47.524;12.404;2023-07-22T00:59:26;4.28;;;2.78;;
41881;SDS011;27562;47.524;12.404;2023-07-22T01:01:53;3.97;;;2.33;;
41881;SDS011;27562;47.524;12.404;2023-07-22T01:04:19;4.03;;;2.70;;
41881;SDS011;27562;47.524;12.404;2023-07-22T01:06:47;7.70;;;2.78;;
41881;SDS011;27562;47.524;12.404;2023-07-22T01:09:14;6.53;;;2.83;;
41881;SDS011;27562;47.524;12.404;2023-07-22T01:11:40;4.47;;;2.58;;
41881;SDS011;27562;47.524;12.404;2023-07-22T01:14:05;5.40;;;3.17;;
41881;SDS011;27562;47.524;12.404;2023-07-22T01:16:33;4.75;;;2.38;;
41881;SDS011;27562;47.524;12.404;2023-07-22T01:18:59;4.18;;;2.75;;
41881;SDS011;27562;47.524;12.404;2023-07-22T01:21:25;3.88;;;2.47;;
41881;SDS011;27562;47.524;12.404;2023-07-22T01:23:52;3.78;;;2.53;;
41881;SDS011;27562;47.524;12.404;2023-07-22T01:26:19;5.93;;;2.70;;
41881;SDS011;27562;47.524;12.404;2023-07-22T01:28:45;4.55;;;2.85;;
41881;SDS011;27562;47.524;12.404;2023-07-22T01:31:10;3.67;;;2.60;;
41881;SDS011;27562;47.524;12.404;2023-07-22T01:33:36;4.00;;;2.58;;
41881;SDS011;27562;47.524;12.404;2023-07-22T01:36:03;4.78;;;2.90;;
41881;SDS011;27562;47.524;12.404;2023-07-22T01:38:29;3.88;;;2.70;;
41881;SDS011;27562;47.524;12.404;2023-07-22T01:40:56;6.40;;;2.95;;
41881;SDS011;27562;47.524;12.404;2023-07-22T01:43:21;4.97;;;3.28;;
41881;SDS011;27562;47.524;12.404;2023-07-22T01:45:47;3.88;;;2.70;;
41881;SDS011;27562;47.524;12.404;2023-07-22T01:48:13;4.57;;;3.00;;
41881;SDS011;27562;47.524;12.404;2023-07-22T01:50:38;6.15;;;2.75;;
41881;SDS011;27562;47.524;12.404;2023-07-22T01:53:04;4.03;;;2.67;;
41881;SDS011;27562;47.524;12.404;2023-07-22T01:55:30;4.93;;;3.03;;
41881;SDS011;27562;47.524;12.404;2023-07-22T01:57:57;4.00;;;2.80;;
41881;SDS011;27562;47.524;12.404;2023-07-22T02:00:23;4.85;;;2.90;;
41881;SDS011;27562;47.524;12.404;2023-07-22T02:02:49;7.45;;;4.68;;
41881;SDS011;27562;47.524;12.404;2023-07-22T02:05:14;6.65;;;5.00;;
41881;SDS011;27562;47.524;12.404;2023-07-22T02:07:40;6.38;;;5.00;;
41881;SDS011;27562;47.524;12.404;2023-07-22T02:10:06;6.18;;;4.78;;
41881;SDS011;27562;47.524;12.404;2023-07-22T02:12:33;5.63;;;3.50;;
41881;SDS011;27562;47.524;12.404;2023-07-22T02:14:58;6.32;;;3.45;;
41881;SDS011;27562;47.524;12.404;2023-07-22T02:17:24;4.85;;;3.10;;
41881;SDS011;27562;47.524;12.404;2023-07-22T02:19:50;5.85;;;3.20;;
41881;SDS011;27562;47.524;12.404;2023-07-22T02:22:15;5.38;;;2.95;;
41881;SDS011;27562;47.524;12.404;2023-07-22T02:24:41;4.28;;;3.00;;
41881;SDS011;27562;47.524;12.404;2023-07-22T02:27:07;5.03;;;3.10;;
41881;SDS011;27562;47.524;12.404;2023-07-22T02:29:35;4.88;;;3.20;;
41881;SDS011;27562;47.524;12.404;2023-07-22T02:32:01;3.53;;;2.70;;
41881;SDS011;27562;47.524;12.404;2023-07-22T02:34:27;5.53;;;2.80;;
41881;SDS011;27562;47.524;12.404;2023-07-22T02:36:53;4.38;;;2.78;;
41881;SDS011;27562;47.524;12.404;2023-07-22T02:39:19;5.68;;;3.20;;
41881;SDS011;27562;47.524;12.404;2023-07-22T02:41:44;6.85;;;2.45;;
41881;SDS011;27562;47.524;12.404;2023-07-22T02:44:10;4.30;;;2.80;;
41881;SDS011;27562;47.524;12.404;2023-07-22T02:46:37;5.03;;;2.70;;
41881;SDS011;27562;47.524;12.404;2023-07-22T02:49:03;4.53;;;2.90;;
41881;SDS011;27562;47.524;12.404;2023-07-22T02:51:28;4.40;;;3.08;;
41881;SDS011;27562;47.524;12.404;2023-07-22T02:53:54;3.75;;;2.78;;
41881;SDS011;27562;47.524;12.404;2023-07-22T02:56:20;7.35;;;3.13;;
41881;SDS011;27562;47.524;12.404;2023-07-22T02:58:49;5.72;;;3.33;;
41881;SDS011;27562;47.524;12.404;2023-07-22T03:01:15;5.03;;;2.97;;
41881;SDS011;27562;47.524;12.404;2023-07-22T03:03:41;5.00;;;2.55;;
41881;SDS011;27562;47.524;12.404;2023-07-22T03:06:06;5.18;;;2.72;;
41881;SDS011;27562;47.524;12.404;2023-07-22T03:08:34;5.10;;;3.20;;
41881;SDS011;27562;47.524;12.404;2023-07-22T03:11:00;4.10;;;2.90;;
41881;SDS011;27562;47.524;12.404;2023-07-22T03:13:26;5.90;;;3.05;;
41881;SDS011;27562;47.524;12.404;2023-07-22T03:15:55;5.80;;;2.95;;
41881;SDS011;27562;47.524;12.404;2023-07-22T03:18:21;5.55;;;3.58;;
41881;SDS011;27562;47.524;12.404;2023-07-22T03:20:47;5.93;;;3.35;;
41881;SDS011;27562;47.524;12.404;2023-07-22T03:23:13;5.00;;;3.10;;
41881;SDS011;27562;47.524;12.404;2023-07-22T03:25:39;4.68;;;3.00;;
41881;SDS011;27562;47.524;12.404;2023-07-22T03:28:06;4.80;;;3.08;;
41881;SDS011;27562;47.524;12.404;2023-07-22T03:30:32;4.07;;;2.80;;
41881;SDS011;27562;47.524;12.404;2023-07-22T03:32:59;4.30;;;2.40;;
41881;SDS011;27562;47.524;12.404;2023-07-22T03:35:26;4.53;;;3.10;;
41881;SDS011;27562;47.524;12.404;2023-07-22T03:37:52;6.45;;;3.40;;
41881;SDS011;27562;47.524;12.404;2023-07-22T03:40:18;4.50;;;3.00;;
41881;SDS011;27562;47.524;12.404;2023-07-22T03:42:52;8.50;;;3.17;;
41881;SDS011;27562;47.524;12.404;2023-07-22T03:45:20;4.45;;;3.10;;
41881;SDS011;27562;47.524;12.404;2023-07-22T03:47:46;5.53;;;3.40;;
41881;SDS011;27562;47.524;12.404;2023-07-22T03:50:14;4.90;;;2.88;;
41881;SDS011;27562;47.524;12.404;2023-07-22T03:52:40;5.25;;;3.15;;
41881;SDS011;27562;47.524;12.404;2023-07-22T03:55:06;6.38;;;3.10;;
41881;SDS011;27562;47.524;12.404;2023-07-22T03:57:32;7.13;;;3.72;;
41881;SDS011;27562;47.524;12.404;2023-07-22T03:59:57;8.10;;;3.10;;
41881;SDS011;27562;47.524;12.404;2023-07-22T04:02:23;4.13;;;2.70;;
41881;SDS011;27562;47.524;12.404;2023-07-22T04:04:53;6.40;;;2.58;;
41881;SDS011;27562;47.524;12.404;2023-07-22T04:07:20;4.45;;;2.92;;
41881;SDS011;27562;47.524;12.404;2023-07-22T04:09:47;4.78;;;2.80;;
41881;SDS011;27562;47.524;12.404;2023-07-22T04:12:13;4.85;;;2.80;;
41881;SDS011;27562;47.524;12.404;2023-07-22T04:14:39;4.43;;;2.90;;
41881;SDS011;27562;47.524;12.404;2023-07-22T04:17:05;4.05;;;2.85;;
41881;SDS011;27562;47.524;12.404;2023-07-22T04:19:31;6.15;;;2.90;;
41881;SDS011;27562;47.524;12.404;2023-07-22T04:21:56;4.63;;;2.70;;
41881;SDS011;27562;47.524;12.404;2023-07-22T04:24:22;5.53;;;2.90;;
41881;SDS011;27562;47.524;12.404;2023-07-22T04:26:50;4.30;;;2.60;;
41881;SDS011;27562;47.524;12.404;2023-07-22T04:29:16;5.15;;;2.60;;
41881;SDS011;27562;47.524;12.404;2023-07-22T04:31:42;4.15;;;2.63;;
41881;SDS011;27562;47.524;12.404;2023-07-22T04:34:08;4.63;;;2.80;;
41881;SDS011;27562;47.524;12.404;2023-07-22T04:36:34;4.80;;;2.67;;
41881;SDS011;27562;47.524;12.404;2023-07-22T04:39:01;6.18;;;2.88;;
41881;SDS011;27562;47.524;12.404;2023-07-22T04:41:30;5.68;;;2.60;;
41881;SDS011;27562;47.524;12.404;2023-07-22T04:43:55;3.95;;;2.35;;
41881;SDS011;27562;47.524;12.404;2023-07-22T04:46:23;6.28;;;2.80;;
41881;SDS011;27562;47.524;12.404;2023-07-22T04:48:49;7.28;;;3.42;;
41881;SDS011;27562;47.524;12.404;2023-07-22T04:51:14;7.35;;;2.88;;
41881;SDS011;27562;47.524;12.404;2023-07-22T04:53:40;4.63;;;2.75;;
41881;SDS011;27562;47.524;12.404;2023-07-22T04:56:06;7.05;;;3.03;;
41881;SDS011;27562;47.524;12.404;2023-07-22T04:58:31;6.78;;;3.00;;
41881;SDS011;27562;47.524;12.404;2023-07-22T05:00:57;4.53;;;2.80;;
41881;SDS011;27562;47.524;12.404;2023-07-22T05:03:23;4.30;;;2.78;;
41881;SDS011;27562;47.524;12.404;2023-07-22T05:05:51;4.75;;;2.80;;
41881;SDS011;27562;47.524;12.404;2023-07-22T05:08:17;4.63;;;2.67;;
41881;SDS011;27562;47.524;12.404;2023-07-22T05:10:43;4.88;;;2.88;;
41881;SDS011;27562;47.524;12.404;2023-07-22T05:13:08;5.63;;;2.70;;
41881;SDS011;27562;47.524;12.404;2023-07-22T05:15:34;4.32;;;2.55;;
41881;SDS011;27562;47.524;12.404;2023-07-22T05:17:59;4.03;;;2.47;;
41881;SDS011;27562;47.524;12.404;2023-07-22T05:20:25;5.30;;;2.85;;
41881;SDS011;27562;47.524;12.404;2023-07-22T05:22:51;4.40;;;2.70;;
41881;SDS011;27562;47.524;12.404;2023-07-22T05:25:17;5.40;;;2.60;;
41881;SDS011;27562;47.524;12.404;2023-07-22T05:27:42;4.70;;;2.65;;
41881;SDS011;27562;47.524;12.404;2023-07-22T05:30:08;4.28;;;2.53;;
41881;SDS011;27562;47.524;12.404;2023-07-22T05:32:35;4.75;;;2.72;;
41881;SDS011;27562;47.524;12.404;2023-07-22T05:38:22;4.18;;;2.55;;
41881;SDS011;27562;47.524;12.404;2023-07-22T05:40:48;4.60;;;2.38;;
41881;SDS011;27562;47.524;12.404;2023-07-22T05:43:13;4.35;;;2.80;;
41881;SDS011;27562;47.524;12.404;2023-07-22T05:45:39;4.35;;;2.60;;
41881;SDS011;27562;47.524;12.404;2023-07-22T05:48:05;4.47;;;2.80;;
41881;SDS011;27562;47.524;12.404;2023-07-22T05:50:31;6.15;;;2.53;;
41881;SDS011;27562;47.524;12.404;2023-07-22T05:52:56;4.53;;;2.70;;
41881;SDS011;27562;47.524;12.404;2023-07-22T05:55:22;4.00;;;2.10;;
41881;SDS011;27562;47.524;12.404;2023-07-22T05:57:48;3.88;;;2.40;;
41881;SDS011;27562;47.524;12.404;2023-07-22T06:00:14;4.60;;;2.53;;
41881;SDS011;27562;47.524;12.404;2023-07-22T06:02:39;3.53;;;2.10;;
41881;SDS011;27562;47.524;12.404;2023-07-22T06:05:06;4.40;;;2.58;;
41881;SDS011;27562;47.524;12.404;2023-07-22T06:07:32;4.38;;;2.95;;
41881;SDS011;27562;47.524;12.404;2023-07-22T06:09:57;4.38;;;2.70;;
41881;SDS011;27562;47.524;12.404;2023-07-22T06:12:23;5.55;;;2.80;;
41881;SDS011;27562;47.524;12.404;2023-07-22T06:14:48;6.43;;;3.75;;
41881;SDS011;27562;47.524;12.404;2023-07-22T06:17:15;6.80;;;4.07;;
41881;SDS011;27562;47.524;12.404;2023-07-22T06:19:40;7.55;;;4.57;;
41881;SDS011;27562;47.524;12.404;2023-07-22T06:22:06;6.80;;;4.40;;
41881;SDS011;27562;47.524;12.404;2023-07-22T06:24:31;7.13;;;4.45;;
41881;SDS011;27562;47.524;12.404;2023-07-22T06:26:57;10.43;;;5.20;;
41881;SDS011;27562;47.524;12.404;2023-07-22T06:29:23;7.57;;;5.18;;
41881;SDS011;27562;47.524;12.404;2023-07-22T06:31:48;6.03;;;4.25;;
41881;SDS011;27562;47.524;12.404;2023-07-22T06:34:14;9.52;;;5.95;;
41881;SDS011;27562;47.524;12.404;2023-07-22T06:36:39;7.60;;;5.38;;
41881;SDS011;27562;47.524;12.404;2023-07-22T06:39:05;7.40;;;4.90;;
41881;SDS011;27562;47.524;12.404;2023-07-22T06:41:31;7.47;;;5.50;;
41881;SDS011;27562;47.524;12.404;2023-07-22T06:43:56;10.98;;;8.18;;
41881;SDS011;27562;47.524;12.404;2023-07-22T06:46:22;8.27;;;6.18;;
41881;SDS011;27562;47.524;12.404;2023-07-22T06:48:48;12.82;;;8.60;;
41881;SDS011;27562;47.524;12.404;2023-07-22T06:51:13;13.65;;;8.18;;
41881;SDS011;27562;47.524;12.404;2023-07-22T06:53:39;12.00;;;7.15;;
41881;SDS011;27562;47.524;12.404;2023-07-22T06:56:04;8.48;;;6.13;;
41881;SDS011;27562;47.524;12.404;2023-07-22T06:58:30;9.85;;;6.03;;
41881;SDS011;27562;47.524;12.404;2023-07-22T07:00:56;8.68;;;6.15;;
41881;SDS011;27562;47.524;12.404;2023-07-22T07:03:22;8.48;;;6.15;;
41881;SDS011;27562;47.524;12.404;2023-07-22T07:05:57;8.60;;;5.53;;
41881;SDS011;27562;47.524;12.404;2023-07-22T07:08:23;7.40;;;5.13;;
41881;SDS011;27562;47.524;12.404;2023-07-22T07:10:49;7.32;;;4.95;;
41881;SDS011;27562;47.524;12.404;2023-07-22T07:13:16;8.57;;;5.43;;
41881;SDS011;27562;47.524;12.404;2023-07-22T07:15:45;7.40;;;5.30;;
41881;SDS011;27562;47.524;12.404;2023-07-22T07:18:13;9.68;;;5.80;;
41881;SDS011;27562;47.524;12.404;2023-07-22T07:20:39;7.53;;;4.63;;
41881;SDS011;27562;47.524;12.404;2023-07-22T07:23:05;7.60;;;4.50;;
41881;SDS011;27562;47.524;12.404;2023-07-22T07:25:31;8.25;;;4.95;;
41881;SDS011;27562;47.524;12.404;2023-07-22T07:27:56;6.18;;;4.03;;
41881;SDS011;27562;47.524;12.404;2023-07-22T07:30:22;7.43;;;4.25;;
41881;SDS011;27562;47.524;12.404;2023-07-22T07:32:48;6.53;;;4.20;;
41881;SDS011;27562;47.524;12.404;2023-07-22T07:35:13;7.97;;;5.30;;
41881;SDS011;27562;47.524;12.404;2023-07-22T07:37:39;6.10;;;3.80;;
41881;SDS011;27562;47.524;12.404;2023-07-22T07:40:05;7.35;;;4.90;;
41881;SDS011;27562;47.524;12.404;2023-07-22T07:42:31;7.13;;;4.68;;
41881;SDS011;27562;47.524;12.404;2023-07-22T07:44:57;6.78;;;4.57;;
41881;SDS011;27562;47.524;12.404;2023-07-22T07:47:22;7.18;;;4.88;;
41881;SDS011;27562;47.524;12.404;2023-07-22T07:49:48;7.40;;;4.47;;
41881;SDS011;27562;47.524;12.404;2023-07-22T07:52:14;6.60;;;4.65;;
41881;SDS011;27562;47.524;12.404;2023-07-22T07:54:39;6.78;;;4.38;;
41881;SDS011;27562;47.524;12.404;2023-07-22T07:57:05;7.78;;;4.55;;
41881;SDS011;27562;47.524;12.404;2023-07-22T07:59:31;6.82;;;4.18;;
41881;SDS011;27562;47.524;12.404;2023-07-22T08:01:57;6.80;;;4.28;;
41881;SDS011;27562;47.524;12.404;2023-07-22T08:04:22;6.72;;;4.10;;
41881;SDS011;27562;47.524;12.404;2023-07-22T08:06:48;6.00;;;4.13;;
41881;SDS011;27562;47.524;12.404;2023-07-22T08:09:14;6.38;;;4.30;;
41881;SDS011;27562;47.524;12.404;2023-07-22T08:11:44;6.00;;;3.95;;
41881;SDS011;27562;47.524;12.404;2023-07-22T08:14:10;6.80;;;4.18;;
41881;SDS011;27562;47.524;12.404;2023-07-22T08:16:36;7.40;;;3.75;;
41881;SDS011;27562;47.524;12.404;2023-07-22T08:19:02;6.07;;;3.92;;
41881;SDS011;27562;47.524;12.404;2023-07-22T08:21:30;6.45;;;3.70;;
41881;SDS011;27562;47.524;12.404;2023-07-22T08:23:56;6.25;;;4.13;;
41881;SDS011;27562;47.524;12.404;2023-07-22T08:26:22;5.20;;;3.70;;
41881;SDS011;27562;47.524;12.404;2023-07-22T08:28:48;5.45;;;3.22;;
41881;SDS011;27562;47.524;12.404;2023-07-22T08:31:13;6.15;;;3.13;;
41881;SDS011;27562;47.524;12.404;2023-07-22T08:33:39;6.63;;;3.50;;
41881;SDS011;27562;47.524;12.404;2023-07-22T08:36:05;6.25;;;3.40;;
41881;SDS011;27562;47.524;12.404;2023-07-22T08:38:30;7.18;;;3.83;;
41881;SDS011;27562;47.524;12.404;2023-07-22T08:40:56;4.70;;;3.40;;
41881;SDS011;27562;47.524;12.404;2023-07-22T08:43:22;5.93;;;3.50;;
41881;SDS011;27562;47.524;12.404;2023-07-22T08:45:49;13.80;;;3.75;;
41881;SDS011;27562;47.524;12.404;2023-07-22T08:48:16;6.22;;;3.63;;
41881;SDS011;27562;47.524;12.404;2023-07-22T08:53:15;4.90;;;3.33;;
41881;SDS011;27562;47.524;12.404;2023-07-22T08:55:41;4.60;;;2.97;;
41881;SDS011;27562;47.524;12.404;2023-07-22T08:58:08;4.95;;;3.20;;
41881;SDS011;27562;47.524;12.404;2023-07-22T09:00:34;5.38;;;3.22;;
41881;SDS011;27562;47.524;12.404;2023-07-22T09:03:01;5.25;;;3.42;;
41881;SDS011;27562;47.524;12.404;2023-07-22T09:05:27;4.82;;;3.20;;
41881;SDS011;27562;47.524;12.404;2023-07-22T09:07:54;4.88;;;3.03;;
41881;SDS011;27562;47.524;12.404;2023-07-22T09:10:21;5.80;;;2.97;;
41881;SDS011;27562;47.524;12.404;2023-07-22T09:12:49;5.10;;;2.72;;
41881;SDS011;27562;47.524;12.404;2023-07-22T09:15:16;3.83;;;2.72;;
41881;SDS011;27562;47.524;12.404;2023-07-22T09:17:43;4.70;;;2.95;;
41881;SDS011;27562;47.524;12.404;2023-07-22T09:20:10;3.60;;;2.60;;
41881;SDS011;27562;47.524;12.404;2023-07-22T09:22:42;3.65;;;2.42;;
41881;SDS011;27562;47.524;12.404;2023-07-22T09:27:52;5.93;;;3.15;;
41881;SDS011;27562;47.524;12.404;2023-07-22T09:30:26;4.80;;;2.80;;
41881;SDS011;27562;47.524;12.404;2023-07-22T09:32:57;4.25;;;2.60;;
41881;SDS011;27562;47.524;12.404;2023-07-22T09:35:28;4.20;;;2.65;;
41881;SDS011;27562;47.524;12.404;2023-07-22T09:37:56;4.55;;;2.50;;
41881;SDS011;27562;47.524;12.404;2023-07-22T09:40:22;4.63;;;2.35;;
41881;SDS011;27562;47.524;12.404;2023-07-22T09:42:50;4.25;;;2.72;;
41881;SDS011;27562;47.524;12.404;2023-07-22T09:45:29;4.00;;;2.83;;
41881;SDS011;27562;47.524;12.404;2023-07-22T09:47:56;3.78;;;2.67;;
41881;SDS011;27562;47.524;12.404;2023-07-22T09:50:23;3.30;;;2.20;;
41881;SDS011;27562;47.524;12.404;2023-07-22T09:52:54;4.43;;;2.53;;
41881;SDS011;27562;47.524;12.404;2023-07-22T09:55:27;3.92;;;2.55;;
41881;SDS011;27562;47.524;12.404;2023-07-22T09:57:55;4.55;;;2.50;;
41881;SDS011;27562;47.524;12.404;2023-07-22T10:00:23;3.92;;;2.50;;
41881;SDS011;27562;47.524;12.404;2023-07-22T10:02:52;4.18;;;2.05;;
41881;SDS011;27562;47.524;12.404;2023-07-22T10:05:24;3.60;;;2.25;;
41881;SDS011;27562;47.524;12.404;2023-07-22T10:07:52;4.20;;;2.10;;
41881;SDS011;27562;47.524;12.404;2023-07-22T10:10:20;3.58;;;2.28;;
41881;SDS011;27562;47.524;12.404;2023-07-22T10:12:49;3.88;;;2.50;;
41881;SDS011;27562;47.524;12.404;2023-07-22T10:15:15;4.55;;;2.35;;
41881;SDS011;27562;47.524;12.404;2023-07-22T10:17:43;4.60;;;2.28;;
41881;SDS011;27562;47.524;12.404;2023-07-22T10:20:11;5.13;;;2.80;;
41881;SDS011;27562;47.524;12.404;2023-07-22T10:22:44;4.57;;;2.15;;
41881;SDS011;27562;47.524;12.404;2023-07-22T10:25:17;5.72;;;2.30;;
41881;SDS011;27562;47.524;12.404;2023-07-22T10:27:44;3.45;;;2.30;;
41881;SDS011;27562;47.524;12.404;2023-07-22T10:30:12;5.03;;;2.38;;
41881;SDS011;27562;47.524;12.404;2023-07-22T10:32:39;3.95;;;2.42;;
41881;SDS011;27562;47.524;12.404;2023-07-22T10:35:22;4.45;;;2.55;;
41881;SDS011;27562;47.524;12.404;2023-07-22T10:40:44;3.42;;;2.08;;
41881;SDS011;27562;47.524;12.404;2023-07-22T10:43:15;4.97;;;2.30;;
41881;SDS011;27562;47.524;12.404;2023-07-22T10:45:51;3.97;;;2.33;;
41881;SDS011;27562;47.524;12.404;2023-07-22T10:48:28;5.72;;;2.38;;
41881;SDS011;27562;47.524;12.404;2023-07-22T10:51:10;4.18;;;2.35;;
41881;SDS011;27562;47.524;12.404;2023-07-22T10:53:40;3.92;;;2.50;;
41881;SDS011;27562;47.524;12.404;2023-07-22T10:56:13;3.60;;;2.13;;
41881;SDS011;27562;47.524;12.404;2023-07-22T11:01:30;5.30;;;2.42;;
41881;SDS011;27562;47.524;12.404;2023-07-22T11:06:59;3.70;;;2.25;;
41881;SDS011;27562;47.524;12.404;2023-07-22T11:12:02;4.72;;;1.95;;
41881;SDS011;27562;47.524;12.404;2023-07-22T11:16:56;4.90;;;2.70;;
41881;SDS011;27562;47.524;12.404;2023-07-22T11:19:23;5.38;;;2.35;;
41881;SDS011;27562;47.524;12.404;2023-07-22T11:21:50;4.78;;;2.67;;
41881;SDS011;27562;47.524;12.404;2023-07-22T11:24:17;3.78;;;2.33;;
41881;SDS011;27562;47.524;12.404;2023-07-22T11:26:47;3.53;;;2.17;;
41881;SDS011;27562;47.524;12.404;2023-07-22T11:29:14;4.20;;;2.42;;
41881;SDS011;27562;47.524;12.404;2023-07-22T11:31:44;5.05;;;2.10;;
41881;SDS011;27562;47.524;12.404;2023-07-22T11:34:12;4.07;;;2.67;;
41881;SDS011;27562;47.524;12.404;2023-07-22T11:36:39;4.43;;;2.28;;
41881;SDS011;27562;47.524;12.404;2023-07-22T11:39:06;4.13;;;2.10;;
41881;SDS011;27562;47.524;12.404;2023-07-22T11:41:33;6.13;;;2.40;;
41881;SDS011;27562;47.524;12.404;2023-07-22T11:43:59;4.57;;;2.40;;
41881;SDS011;27562;47.524;12.404;2023-07-22T11:46:27;4.05;;;2.78;;
41881;SDS011;27562;47.524;12.404;2023-07-22T11:48:53;5.35;;;2.78;;
41881;SDS011;27562;47.524;12.404;2023-07-22T11:51:20;4.75;;;2.47;;
41881;SDS011;27562;47.524;12.404;2023-07-22T11:53:48;5.32;;;2.33;;
41881;SDS011;27562;47.524;12.404;2023-07-22T11:56:21;4.47;;;2.42;;
41881;SDS011;27562;47.524;12.404;2023-07-22T11:58:49;5.35;;;2.25;;
41881;SDS011;27562;47.524;12.404;2023-07-22T12:01:19;6.28;;;2.65;;
41881;SDS011;27562;47.524;12.404;2023-07-22T12:03:45;3.85;;;2.38;;
41881;SDS011;27562;47.524;12.404;2023-07-22T12:06:11;5.18;;;2.97;;
41881;SDS011;27562;47.524;12.404;2023-07-22T12:08:48;3.22;;;2.33;;
41881;SDS011;27562;47.524;12.404;2023-07-22T12:11:20;4.57;;;2.30;;
41881;SDS011;27562;47.524;12.404;2023-07-22T12:13:47;4.43;;;2.33;;
41881;SDS011;27562;47.524;12.404;2023-07-22T12:16:35;3.95;;;2.60;;
41881;SDS011;27562;47.524;12.404;2023-07-22T12:19:02;3.65;;;2.70;;
41881;SDS011;27562;47.524;12.404;2023-07-22T12:21:28;3.63;;;2.45;;
41881;SDS011;27562;47.524;12.404;2023-07-22T12:23:53;4.47;;;2.35;;
41881;SDS011;27562;47.524;12.404;2023-07-22T12:26:19;3.38;;;2.40;;
41881;SDS011;27562;47.524;12.404;2023-07-22T12:28:45;4.00;;;2.42;;
41881;SDS011;27562;47.524;12.404;2023-07-22T12:31:11;3.47;;;2.00;;
41881;SDS011;27562;47.524;12.404;2023-07-22T12:33:37;3.75;;;2.40;;
41881;SDS011;27562;47.524;12.404;2023-07-22T12:36:03;4.38;;;2.65;;
41881;SDS011;27562;47.524;12.404;2023-07-22T12:38:29;3.63;;;1.95;;
41881;SDS011;27562;47.524;12.404;2023-07-22T12:40:55;4.07;;;2.70;;
41881;SDS011;27562;47.524;12.404;2023-07-22T12:43:21;3.40;;;2.05;;
41881;SDS011;27562;47.524;12.404;2023-07-22T12:45:47;4.13;;;2.47;;
41881;SDS011;27562;47.524;12.404;2023-07-22T12:48:13;7.30;;;2.90;;
41881;SDS011;27562;47.524;12.404;2023-07-22T12:50:38;6.75;;;2.78;;
41881;SDS011;27562;47.524;12.404;2023-07-22T12:53:04;5.80;;;2.90;;
41881;SDS011;27562;47.524;12.404;2023-07-22T12:55:30;6.72;;;3.13;;
41881;SDS011;27562;47.524;12.404;2023-07-22T12:57:55;6.15;;;3.40;;
41881;SDS011;27562;47.524;12.404;2023-07-22T13:00:21;5.32;;;3.13;;
41881;SDS011;27562;47.524;12.404;2023-07-22T13:02:47;8.38;;;3.38;;
41881;SDS011;27562;47.524;12.404;2023-07-22T13:05:13;4.97;;;2.78;;
41881;SDS011;27562;47.524;12.404;2023-07-22T13:07:39;4.00;;;2.60;;
41881;SDS011;27562;47.524;12.404;2023-07-22T13:10:08;4.93;;;2.97;;
41881;SDS011;27562;47.524;12.404;2023-07-22T13:12:41;3.92;;;2.90;;
41881;SDS011;27562;47.524;12.404;2023-07-22T13:15:07;4.10;;;2.88;;
41881;SDS011;27562;47.524;12.404;2023-07-22T13:17:33;7.38;;;2.90;;
41881;SDS011;27562;47.524;12.404;2023-07-22T13:19:59;4.28;;;2.78;;
41881;SDS011;27562;47.524;12.404;2023-07-22T13:22:24;6.03;;;2.92;;
41881;SDS011;27562;47.524;12.404;2023-07-22T13:24:50;4.25;;;2.92;;
41881;SDS011;27562;47.524;12.404;2023-07-22T13:27:16;5.15;;;3.15;;
41881;SDS011;27562;47.524;12.404;2023-07-22T13:29:41;6.10;;;2.92;;
41881;SDS011;27562;47.524;12.404;2023-07-22T13:32:07;3.78;;;2.55;;
41881;SDS011;27562;47.524;12.404;2023-07-22T13:34:33;5.18;;;2.80;;
41881;SDS011;27562;47.524;12.404;2023-07-22T13:36:59;3.67;;;2.38;;
41881;SDS011;27562;47.524;12.404;2023-07-22T13:39:27;4.15;;;2.58;;
41881;SDS011;27562;47.524;12.404;2023-07-22T13:41:53;5.05;;;3.08;;
41881;SDS011;27562;47.524;12.404;2023-07-22T13:44:18;4.30;;;2.63;;
41881;SDS011;27562;47.524;12.404;2023-07-22T13:46:44;4.10;;;2.42;;
41881;SDS011;27562;47.524;12.404;2023-07-22T13:49:10;4.47;;;2.50;;
41881;SDS011;27562;47.524;12.404;2023-07-22T13:51:35;4.53;;;2.83;;
41881;SDS011;27562;47.524;12.404;2023-07-22T13:54:01;3.38;;;2.15;;
41881;SDS011;27562;47.524;12.404;2023-07-22T13:56:27;3.50;;;2.35;;
41881;SDS011;27562;47.524;12.404;2023-07-22T13:58:55;4.45;;;3.00;;
41881;SDS011;27562;47.524;12.404;2023-07-22T14:01:23;4.05;;;2.33;;
41881;SDS011;27562;47.524;12.404;2023-07-22T14:03:49;4.22;;;2.63;;
41881;SDS011;27562;47.524;12.404;2023-07-22T14:06:14;4.63;;;2.95;;
41881;SDS011;27562;47.524;12.404;2023-07-22T14:08:40;4.30;;;3.00;;
41881;SDS011;27562;47.524;12.404;2023-07-22T14:11:07;4.38;;;2.65;;
41881;SDS011;27562;47.524;12.404;2023-07-22T14:13:33;4.93;;;2.45;;
41881;SDS011;27562;47.524;12.404;2023-07-22T14:15:59;4.15;;;2.40;;
41881;SDS011;27562;47.524;12.404;2023-07-22T14:18:24;4.20;;;2.75;;
41881;SDS011;27562;47.524;12.404;2023-07-22T14:20:50;5.05;;;2.70;;
41881;SDS011;27562;47.524;12.404;2023-07-22T14:23:16;4.07;;;2.80;;
41881;SDS011;27562;47.524;12.404;2023-07-22T14:25:41;4.32;;;3.00;;
41881;SDS011;27562;47.524;12.404;2023-07-22T14:28:07;4.90;;;2.85;;
41881;SDS011;27562;47.524;12.404;2023-07-22T14:30:33;5.10;;;3.10;;
41881;SDS011;27562;47.524;12.404;2023-07-22T14:32:59;5.25;;;3.30;;
41881;SDS011;27562;47.524;12.404;2023-07-22T14:35:24;3.72;;;2.50;;
41881;SDS011;27562;47.524;12.404;2023-07-22T14:37:50;3.80;;;2.60;;
41881;SDS011;27562;47.524;12.404;2023-07-22T14:40:17;3.70;;;2.70;;
41881;SDS011;27562;47.524;12.404;2023-07-22T14:42:43;3.42;;;2.38;;
41881;SDS011;27562;47.524;12.404;2023-07-22T14:45:09;4.63;;;2.70;;
41881;SDS011;27562;47.524;12.404;2023-07-22T14:47:35;4.47;;;3.05;;
41881;SDS011;27562;47.524;12.404;2023-07-22T14:50:00;5.70;;;3.38;;
41881;SDS011;27562;47.524;12.404;2023-07-22T14:52:26;4.38;;;3.03;;